Brewton, Alabama
Current Conditions -  °F | °C
As of 9:53 AM on Saturday 25 Oct 2014 (Local Time) from KGZH Reporting Station
Clear Clear  
Wind Chill: 69°   Ceiling: Unl
Heat Index: 69°   Visibility: 10mi
Dew Point: 50°   Wind: 6mph
Humidity: 51%   Direction: NA
Pressure: 30.14"   Gusts: NA
Location:  31.1°N, 87.07°W
Report Text: KGZH 251453Z AUTO VRB05KT 10SM CLR 21/10 A3014 RMK AO2 SLP203 T02060100 53013
Loading
Personal Weather Stations






























Interactive Weather Map
Tropical Storm Tracking
New forecast layout! Learn more

10-Day Weather Forecast

Advertisements
Track Severe Weather on mobile